Terminal Aerodrome Forecast
Issued by NWS Austin/San Antonio, TX

Home | Current Version | Previous Version | Text Only | Print | Product List | Glossary On
Versions: 1 2 3 4 5 6 7 8 9 10 11 12 13 14 15 16 17 18 19 20 21 22 23
000
FTUS44 KEWX 101500 AAC
TAFAUS
TAF AMD
KAUS 101535Z 1016/1118 19009KT P6SM BKN015
     FM101600 18010KT P6SM FEW030
     FM101900 17012G22KT P6SM SCT050 BKN120
     FM111100 17005KT 5SM BR SCT020
     FM111500 17010KT P6SM SCT050=

USA.gov is the U.S. government's official web portal to all federal, state and local government web resources and services.